Terminal Aerodrome Forecast
Issued by NWS Amarillo, TX

Home | Current Version | Previous Version | Text Only | Print | Product List | Glossary On
Versions: 1 2 3 4 5 6 7 8 9 10 11 12 13 14 15 16 17 18
000
FTUS44 KAMA 292300
TAFGUY
TAF
KGUY 292320Z 3000/3024 05008KT P6SM SCT035 BKN070
      TEMPO 3001/3005 6SM -TSRA OVC040CB
     FM300500 02006KT P6SM SCT020 OVC070
     FM301500 08008KT P6SM SCT070 BKN200=

USA.gov is the U.S. government's official web portal to all federal, state and local government web resources and services.